createdAt,value
2022-12-08T00:01:30.264Z,99462.00
2022-12-08T00:04:02.357Z,99457.56
2022-12-08T00:06:54.716Z,99450.38
2022-12-08T00:09:34.708Z,99462.28
2022-12-08T00:12:16.468Z,99458.59
2022-12-08T00:14:46.716Z,99469.94
2022-12-08T00:17:16.115Z,99468.13
2022-12-08T00:19:44.115Z,99467.94
2022-12-08T00:22:12.661Z,99474.16
2022-12-08T00:24:41.267Z,99473.28
2022-12-08T00:27:10.395Z,99468.97
2022-12-08T00:29:37.860Z,99476.00
2022-12-08T00:32:06.761Z,99474.25
2022-12-08T00:34:34.265Z,99462.03
2022-12-08T00:37:01.735Z,99464.78
2022-12-08T00:39:28.999Z,99467.50
2022-12-08T00:42:14.018Z,99472.88
2022-12-08T00:44:42.806Z,99465.09
2022-12-08T00:47:10.853Z,99458.19
2022-12-08T00:49:37.896Z,99466.06
2022-12-08T00:52:05.011Z,99462.53
2022-12-08T00:54:31.996Z,99467.81
2022-12-08T00:56:58.967Z,99470.56
2022-12-08T00:59:26.012Z,99475.84
2022-12-08T01:01:53.022Z,99471.59
2022-12-08T01:04:21.117Z,99470.75
2022-12-08T01:06:48.433Z,99481.28
2022-12-08T01:09:17.269Z,99487.34
2022-12-08T01:11:45.265Z,99483.00
2022-12-08T01:14:13.441Z,99487.50
2022-12-08T01:16:43.932Z,99478.78
2022-12-08T01:19:17.380Z,99485.81
2022-12-08T01:21:45.748Z,99480.63
2022-12-08T01:24:21.283Z,99484.06
2022-12-08T01:26:50.663Z,99483.28
2022-12-08T01:29:18.176Z,99481.63
2022-12-08T01:31:45.283Z,99474.66
2022-12-08T01:34:13.144Z,99473.81
2022-12-08T01:36:40.299Z,99478.16
2022-12-08T01:39:14.338Z,99457.97
2022-12-08T01:41:43.673Z,99460.50
2022-12-08T01:44:13.390Z,99457.94
2022-12-08T01:46:45.654Z,99448.31
2022-12-08T01:49:16.376Z,99457.03
2022-12-08T01:52:11.580Z,99450.91
2022-12-08T01:54:54.400Z,99443.97
2022-12-08T01:57:31.307Z,99442.16
2022-12-08T02:00:09.273Z,99431.72
2022-12-08T02:03:06.855Z,99428.28
2022-12-08T02:05:37.850Z,99432.69
2022-12-08T02:08:12.766Z,99419.59
2022-12-08T02:10:42.615Z,99420.34
2022-12-08T02:13:15.118Z,99421.22
2022-12-08T02:16:12.325Z,99408.94
2022-12-08T02:19:22.477Z,99409.75
2022-12-08T02:22:00.884Z,99413.19
2022-12-08T02:24:38.542Z,99417.59
2022-12-08T02:27:11.553Z,99408.97
2022-12-08T02:29:53.609Z,99414.97
2022-12-08T02:33:09.676Z,99415.72
2022-12-08T02:36:29.722Z,99427.13
2022-12-08T02:39:28.110Z,99429.94
2022-12-08T02:42:11.635Z,99440.44
2022-12-08T02:44:49.088Z,99444.00
2022-12-08T02:47:20.961Z,99444.84
2022-12-08T02:49:48.385Z,99443.28
2022-12-08T02:52:15.282Z,99439.78
2022-12-08T02:54:47.818Z,99434.41
2022-12-08T02:57:37.293Z,99424.72
2022-12-08T03:00:57.916Z,99422.22
2022-12-08T03:03:39.164Z,99420.47
2022-12-08T03:06:35.763Z,99406.41
2022-12-08T03:09:17.551Z,99417.78
2022-12-08T03:12:02.019Z,99410.84
2022-12-08T03:14:31.030Z,99417.06
2022-12-08T03:16:59.769Z,99413.88
2022-12-08T03:19:36.004Z,99411.38
2022-12-08T03:22:05.889Z,99398.44
2022-12-08T03:24:39.791Z,99393.31
2022-12-08T03:27:20.632Z,99394.97
2022-12-08T03:29:51.804Z,99404.56
2022-12-08T03:32:51.542Z,99387.94
2022-12-08T03:35:25.637Z,99393.03
2022-12-08T03:37:53.165Z,99387.56
2022-12-08T03:40:21.321Z,99390.16
2022-12-08T03:42:48.644Z,99380.56
2022-12-08T03:47:43.735Z,99378.69
2022-12-08T03:50:11.945Z,99380.41
2022-12-08T03:52:39.142Z,99383.88
2022-12-08T03:55:07.269Z,99383.00
2022-12-08T03:57:34.716Z,99376.97
2022-12-08T04:00:03.100Z,99383.84
2022-12-08T04:02:30.682Z,99374.16
2022-12-08T04:04:58.333Z,99382.88
2022-12-08T04:07:25.835Z,99373.38
2022-12-08T04:09:53.219Z,99371.56
2022-12-08T04:12:20.578Z,99373.38
2022-12-08T04:14:48.105Z,99372.44
2022-12-08T04:17:15.582Z,99365.50
2022-12-08T04:19:42.602Z,99379.47
2022-12-08T04:22:09.586Z,99369.88
2022-12-08T04:24:36.641Z,99370.75
2022-12-08T04:27:03.727Z,99368.16
2022-12-08T04:29:30.696Z,99378.59
2022-12-08T04:31:57.777Z,99382.03
2022-12-08T04:34:24.928Z,99372.47
2022-12-08T04:36:51.925Z,99371.59
2022-12-08T04:39:18.940Z,99374.16
2022-12-08T04:41:46.006Z,99370.69
2022-12-08T04:44:13.016Z,99365.44
2022-12-08T04:46:43.325Z,99372.38
2022-12-08T04:49:10.888Z,99369.75
2022-12-08T04:51:37.840Z,99361.91
2022-12-08T04:54:05.009Z,99370.59
2022-12-08T04:56:31.943Z,99369.72
2022-12-08T04:58:58.902Z,99360.94
2022-12-08T05:01:25.935Z,99367.97
2022-12-08T05:03:52.968Z,99370.66
2022-12-08T05:06:19.959Z,99374.13
2022-12-08T05:08:46.937Z,99368.88
2022-12-08T05:11:14.160Z,99370.66
2022-12-08T05:13:41.179Z,99372.41
2022-12-08T05:16:12.941Z,99369.81
2022-12-08T05:18:41.777Z,99381.13
2022-12-08T05:21:09.721Z,99362.78
2022-12-08T05:23:37.010Z,99362.81
2022-12-08T05:26:04.301Z,99366.19
2022-12-08T05:28:46.590Z,99358.34
2022-12-08T05:31:15.670Z,99353.03
2022-12-08T05:33:44.101Z,99359.06
2022-12-08T05:36:14.076Z,99362.53
2022-12-08T05:38:42.114Z,99358.03
2022-12-08T05:41:17.804Z,99355.47
2022-12-08T05:43:46.533Z,99358.03
2022-12-08T05:46:15.031Z,99353.66
2022-12-08T05:48:42.645Z,99347.56
2022-12-08T05:51:21.940Z,99347.47
2022-12-08T05:53:50.377Z,99346.56
2022-12-08T05:56:18.010Z,99345.72
2022-12-08T05:58:45.402Z,99342.16
2022-12-08T06:01:31.236Z,99348.25
2022-12-08T06:04:00.340Z,99352.50
2022-12-08T06:06:28.644Z,99357.81
2022-12-08T06:08:55.767Z,99361.34
2022-12-08T06:11:27.354Z,99353.50
2022-12-08T06:13:56.731Z,99357.13
2022-12-08T06:16:26.240Z,99359.72
2022-12-08T06:18:56.061Z,99358.84
2022-12-08T06:21:23.335Z,99359.75
2022-12-08T06:23:53.016Z,99358.03
2022-12-08T06:26:21.195Z,99365.00
2022-12-08T06:28:49.697Z,99374.69
2022-12-08T06:31:23.646Z,99368.50
2022-12-08T06:33:51.964Z,99373.78
2022-12-08T06:36:21.761Z,99377.28
2022-12-08T06:38:49.421Z,99376.53
2022-12-08T06:41:16.879Z,99390.44
2022-12-08T06:43:44.708Z,99376.41
2022-12-08T06:46:16.111Z,99375.63
2022-12-08T06:48:43.842Z,99389.59
2022-12-08T06:51:16.332Z,99390.44
2022-12-08T06:53:44.784Z,99393.06
2022-12-08T06:56:13.264Z,99394.81
2022-12-08T06:58:40.337Z,99385.19
2022-12-08T07:01:11.295Z,99391.38
2022-12-08T07:03:39.454Z,99398.34
2022-12-08T07:06:07.234Z,99396.59
2022-12-08T07:08:35.437Z,99396.63
2022-12-08T07:11:14.134Z,99401.88
2022-12-08T07:13:43.643Z,99402.72
2022-12-08T07:16:12.599Z,99394.84
2022-12-08T07:18:40.095Z,99403.56
2022-12-08T07:21:13.253Z,99397.44
2022-12-08T07:23:40.567Z,99401.84
2022-12-08T07:26:11.136Z,99400.03
2022-12-08T07:28:40.194Z,99401.81
2022-12-08T07:31:09.150Z,99393.91
2022-12-08T07:33:36.316Z,99399.13
2022-12-08T07:36:07.384Z,99397.44
2022-12-08T07:38:37.642Z,99400.03
2022-12-08T07:41:04.768Z,99404.38
2022-12-08T07:43:32.039Z,99397.34
2022-12-08T07:45:59.127Z,99400.03
2022-12-08T07:48:26.177Z,99386.06
2022-12-08T07:51:04.285Z,99393.06
2022-12-08T07:53:32.164Z,99397.38
2022-12-08T07:55:59.522Z,99401.81
2022-12-08T07:58:28.275Z,99398.28
2022-12-08T08:00:55.512Z,99398.22
2022-12-08T08:03:22.763Z,99405.25
2022-12-08T08:05:50.175Z,99404.44
2022-12-08T08:08:17.900Z,99405.34
2022-12-08T08:10:46.376Z,99409.72
2022-12-08T08:13:13.878Z,99409.63
2022-12-08T08:15:40.973Z,99417.53
2022-12-08T08:18:08.399Z,99405.38
2022-12-08T08:20:35.469Z,99411.50
2022-12-08T08:23:02.512Z,99407.09
2022-12-08T08:25:29.496Z,99408.91
2022-12-08T08:27:56.471Z,99417.56
2022-12-08T08:30:23.527Z,99411.53
2022-12-08T08:32:50.934Z,99409.78
2022-12-08T08:35:18.111Z,99416.97
2022-12-08T08:37:48.832Z,99421.25
2022-12-08T08:40:17.956Z,99423.03
2022-12-08T08:42:45.098Z,99418.75
2022-12-08T08:45:12.299Z,99422.31
2022-12-08T08:47:42.096Z,99422.47
2022-12-08T08:50:09.660Z,99424.22
2022-12-08T08:52:36.867Z,99424.28
2022-12-08T08:55:04.445Z,99423.50
2022-12-08T08:57:31.414Z,99426.19
2022-12-08T08:59:58.443Z,99427.19
2022-12-08T09:02:25.488Z,99421.19
2022-12-08T09:04:52.742Z,99426.47
2022-12-08T09:07:19.868Z,99421.25
2022-12-08T09:09:46.920Z,99430.94
2022-12-08T09:12:14.211Z,99422.25
2022-12-08T09:14:41.327Z,99424.03
2022-12-08T09:17:09.051Z,99426.66
2022-12-08T09:19:36.147Z,99422.47
2022-12-08T09:22:03.384Z,99422.66
2022-12-08T09:24:30.429Z,99435.91
2022-12-08T09:26:57.519Z,99432.41
2022-12-08T09:29:26.227Z,99432.50
2022-12-08T09:31:56.506Z,99427.22
2022-12-08T09:34:23.778Z,99423.69
2022-12-08T09:36:50.747Z,99420.28
2022-12-08T09:39:17.773Z,99419.56
2022-12-08T09:41:51.751Z,99421.31
2022-12-08T09:44:52.145Z,99428.50
2022-12-08T09:47:35.293Z,99426.69
2022-12-08T09:50:10.637Z,99426.69
2022-12-08T09:52:58.560Z,99428.53
2022-12-08T09:55:40.098Z,99430.25
2022-12-08T09:58:22.364Z,99425.13
2022-12-08T10:00:49.455Z,99422.63
2022-12-08T10:03:17.183Z,99415.72
2022-12-08T10:06:05.464Z,99420.28
2022-12-08T10:09:32.665Z,99415.16
2022-12-08T10:12:46.839Z,99411.00
2022-12-08T10:15:39.625Z,99416.41
2022-12-08T10:18:25.634Z,99414.63
2022-12-08T10:20:53.042Z,99412.88
2022-12-08T10:23:30.486Z,99409.50
2022-12-08T10:26:18.259Z,99416.69
2022-12-08T10:28:45.980Z,99407.03
2022-12-08T10:31:25.953Z,99399.06
2022-12-08T10:34:19.496Z,99400.00
2022-12-08T10:36:57.842Z,99405.44
2022-12-08T10:39:43.965Z,99392.34
2022-12-08T10:42:14.306Z,99394.94
2022-12-08T10:45:16.153Z,99390.59
2022-12-08T10:47:55.884Z,99396.03
2022-12-08T10:50:32.659Z,99381.06
2022-12-08T10:53:14.099Z,99382.06
2022-12-08T10:55:46.150Z,99383.69
2022-12-08T10:58:40.517Z,99386.63
2022-12-08T11:01:22.383Z,99373.41
2022-12-08T11:03:50.541Z,99376.91
2022-12-08T11:06:27.104Z,99378.59
2022-12-08T11:09:04.080Z,99368.22
2022-12-08T11:11:59.397Z,99353.28
2022-12-08T11:14:33.221Z,99362.03
2022-12-08T11:17:10.143Z,99357.78
2022-12-08T11:19:40.371Z,99349.00
2022-12-08T11:22:27.849Z,99342.97
2022-12-08T11:25:24.926Z,99334.97
2022-12-08T11:27:57.409Z,99358.88
2022-12-08T11:30:46.524Z,99344.91
2022-12-08T11:33:26.767Z,99343.22
2022-12-08T11:36:09.119Z,99337.09
2022-12-08T11:38:42.900Z,99339.69
2022-12-08T11:41:16.719Z,99345.88
2022-12-08T11:44:32.182Z,99349.50
2022-12-08T11:47:07.136Z,99332.00
2022-12-08T11:49:40.329Z,99334.81
2022-12-08T11:52:42.174Z,99326.97
2022-12-08T11:55:49.851Z,99318.31
2022-12-08T11:58:23.117Z,99315.75
2022-12-08T12:00:56.592Z,99318.50
2022-12-08T12:03:30.071Z,99308.06
2022-12-08T12:06:46.324Z,99293.97
2022-12-08T12:09:23.109Z,99283.53
2022-12-08T12:12:16.216Z,99279.91
2022-12-08T12:15:30.348Z,99284.56
2022-12-08T12:18:32.787Z,99276.69
2022-12-08T12:21:19.692Z,99270.56
2022-12-08T12:24:31.617Z,99275.06
2022-12-08T12:27:06.014Z,99261.03
2022-12-08T12:29:36.601Z,99260.19
2022-12-08T12:32:08.490Z,99253.09
2022-12-08T12:34:44.658Z,99269.81
2022-12-08T12:37:20.268Z,99284.75
2022-12-08T12:39:53.155Z,99275.13
2022-12-08T12:42:55.436Z,99252.28
2022-12-08T12:45:22.357Z,99264.59
2022-12-08T12:47:57.148Z,99266.34
2022-12-08T12:50:34.070Z,99276.91
2022-12-08T12:53:10.684Z,99272.47
2022-12-08T12:55:58.161Z,99265.44
2022-12-08T12:58:31.901Z,99269.03
2022-12-08T13:01:13.743Z,99259.31
2022-12-08T13:04:00.876Z,99267.28
2022-12-08T13:06:57.129Z,99257.41
2022-12-08T13:09:43.233Z,99287.28
2022-12-08T13:12:20.372Z,99259.19
2022-12-08T13:14:51.025Z,99248.78
2022-12-08T13:17:28.197Z,99236.56
2022-12-08T13:19:59.146Z,99226.97
2022-12-08T13:22:54.423Z,99219.16
2022-12-08T13:25:40.956Z,99221.75
2022-12-08T13:28:22.685Z,99207.75
2022-12-08T13:31:02.094Z,99207.66
2022-12-08T13:33:39.739Z,99190.09
2022-12-08T13:36:34.051Z,99204.16
2022-12-08T13:39:03.187Z,99207.63
2022-12-08T13:41:50.849Z,99197.97
2022-12-08T13:45:18.530Z,99190.13
2022-12-08T13:47:34.172Z,99188.31
2022-12-08T14:00:35.285Z,99203.13
2022-12-08T14:03:02.720Z,99205.75
2022-12-08T14:06:10.923Z,99213.84
2022-12-08T14:08:59.915Z,99196.34
2022-12-08T14:11:47.778Z,99184.97
2022-12-08T14:14:45.838Z,99182.28
2022-12-08T14:17:15.419Z,99165.53
2022-12-08T14:20:06.654Z,99162.81
2022-12-08T14:22:37.819Z,99152.34
2022-12-08T14:25:08.231Z,99154.94
2022-12-08T14:27:37.594Z,99166.41
2022-12-08T14:30:14.084Z,99158.38
2022-12-08T14:32:51.500Z,99151.25
2022-12-08T14:35:27.251Z,99149.41
2022-12-08T14:38:22.433Z,99148.50
2022-12-08T14:40:59.509Z,99138.72
2022-12-08T14:43:29.172Z,99153.56
2022-12-08T14:46:24.071Z,99155.22
2022-12-08T14:48:51.129Z,99143.84
2022-12-08T14:51:21.172Z,99138.53
2022-12-08T14:54:08.220Z,99122.63
2022-12-08T14:56:42.120Z,99133.97
2022-12-08T14:59:31.356Z,99138.22
2022-12-08T15:02:16.528Z,99146.97
2022-12-08T15:04:47.671Z,99139.91
2022-12-08T15:07:22.278Z,99126.72
2022-12-08T15:10:09.775Z,99123.16
2022-12-08T15:12:37.068Z,99127.53
2022-12-08T15:15:09.813Z,99125.78
2022-12-08T15:17:51.723Z,99124.81
2022-12-08T15:20:41.025Z,99122.22
2022-12-08T15:23:30.723Z,99116.91
2022-12-08T15:25:59.638Z,99122.13
2022-12-08T15:28:30.271Z,99124.78
2022-12-08T15:30:58.330Z,99115.94
2022-12-08T15:33:26.034Z,99114.13
2022-12-08T15:35:53.784Z,99128.09
2022-12-08T15:38:27.109Z,99123.69
2022-12-08T15:40:55.454Z,99117.56
2022-12-08T15:43:23.265Z,99119.31
2022-12-08T15:45:59.097Z,99116.72
2022-12-08T15:48:29.590Z,99120.19
2022-12-08T15:50:57.604Z,99111.47
2022-12-08T15:53:25.733Z,99115.81
2022-12-08T15:58:56.871Z,99116.56
2022-12-08T16:01:24.895Z,99121.78
2022-12-08T16:09:32.059Z,99122.72
2022-12-08T16:12:17.931Z,99115.66
2022-12-08T16:17:34.116Z,99116.47
2022-12-08T16:20:02.056Z,99120.78
2022-12-08T16:25:21.981Z,99119.88
2022-12-08T16:28:05.447Z,99120.72
2022-12-08T16:30:36.462Z,99125.88
2022-12-08T16:33:03.778Z,99122.28
2022-12-08T16:35:31.469Z,99128.47
2022-12-08T16:38:01.631Z,99127.47
2022-12-08T16:40:28.945Z,99126.56
2022-12-08T16:42:56.002Z,99131.81
2022-12-08T16:45:26.406Z,99122.16
2022-12-08T16:47:59.976Z,99123.00
2022-12-08T16:50:34.441Z,99125.63
2022-12-08T16:53:09.180Z,99122.97
2022-12-08T16:55:36.273Z,99129.03
2022-12-08T16:58:03.756Z,99125.53
2022-12-08T17:00:37.176Z,99120.31
2022-12-08T17:03:07.984Z,99122.00
2022-12-08T17:05:35.523Z,99126.28
2022-12-08T17:08:03.697Z,99121.88
2022-12-08T17:10:34.597Z,99117.44
2022-12-08T17:13:07.838Z,99127.06
2022-12-08T17:15:35.944Z,99120.94
2022-12-08T17:18:04.587Z,99119.25
2022-12-08T17:20:37.460Z,99122.66
2022-12-08T17:23:12.397Z,99126.16
2022-12-08T17:25:40.297Z,99126.06
2022-12-08T17:28:07.588Z,99133.91
2022-12-08T17:30:35.522Z,99126.03
2022-12-08T17:33:07.852Z,99131.25
2022-12-08T17:35:35.455Z,99122.50
2022-12-08T17:38:06.082Z,99123.38
2022-12-08T17:40:33.182Z,99127.75
2022-12-08T17:43:00.644Z,99125.91
2022-12-08T17:45:49.637Z,99119.78
2022-12-08T17:48:17.492Z,99119.59
2022-12-08T17:50:46.869Z,99129.22
2022-12-08T17:53:15.136Z,99131.13
2022-12-08T17:55:45.642Z,99121.41
2022-12-08T17:58:14.949Z,99127.44
2022-12-08T18:00:42.184Z,99129.16
2022-12-08T18:03:09.999Z,99123.94
2022-12-08T18:05:37.779Z,99130.94
2022-12-08T18:08:07.818Z,99134.44
2022-12-08T18:10:35.219Z,99127.47
2022-12-08T18:13:03.852Z,99130.03
2022-12-08T18:15:36.039Z,99135.38
2022-12-08T18:18:06.953Z,99136.94
2022-12-08T18:20:35.074Z,99136.03
2022-12-08T18:23:02.280Z,99136.91
2022-12-08T18:25:29.306Z,99136.84
2022-12-08T18:27:56.435Z,99137.69
2022-12-08T18:30:23.821Z,99131.53
2022-12-08T18:32:57.052Z,99128.84
2022-12-08T18:35:41.672Z,99137.63
2022-12-08T18:38:08.655Z,99132.47
2022-12-08T18:40:35.612Z,99130.63
2022-12-08T18:43:02.526Z,99126.25
2022-12-08T18:45:29.482Z,99124.53
2022-12-08T18:47:56.628Z,99123.66
2022-12-08T18:50:23.726Z,99124.50
2022-12-08T18:52:51.571Z,99126.25
2022-12-08T18:55:18.678Z,99121.94
2022-12-08T18:57:46.288Z,99128.13
2022-12-08T19:00:20.255Z,99122.09
2022-12-08T19:02:47.326Z,99119.44
2022-12-08T19:05:14.669Z,99117.72
2022-12-08T19:07:42.783Z,99121.19
2022-12-08T19:10:10.830Z,99125.59
2022-12-08T19:12:37.840Z,99125.53
2022-12-08T19:15:06.192Z,99123.59
2022-12-08T19:17:33.348Z,99133.22
2022-12-08T19:20:00.560Z,99133.25
2022-12-08T19:22:27.607Z,99133.34
2022-12-08T19:24:54.558Z,99129.69
2022-12-08T19:27:21.542Z,99121.72
2022-12-08T19:29:48.516Z,99133.06
2022-12-08T19:32:15.462Z,99128.66
2022-12-08T19:34:42.856Z,99128.78
2022-12-08T19:37:12.541Z,99134.84
2022-12-08T19:39:58.720Z,99132.16
2022-12-08T19:42:44.095Z,99124.25
2022-12-08T19:45:21.502Z,99121.75
2022-12-08T19:47:48.989Z,99122.63
2022-12-08T19:50:35.844Z,99114.75
2022-12-08T19:53:12.604Z,99112.16
2022-12-08T19:55:40.517Z,99123.50
2022-12-08T19:58:08.878Z,99117.31
2022-12-08T20:00:39.047Z,99121.59
2022-12-08T20:03:06.534Z,99129.56
2022-12-08T20:05:36.285Z,99114.69
2022-12-08T20:08:03.305Z,99126.13
2022-12-08T20:10:35.900Z,99123.47
2022-12-08T20:13:22.878Z,99110.31
2022-12-08T20:15:50.425Z,99117.25
2022-12-08T20:18:17.952Z,99119.84
2022-12-08T20:20:46.632Z,99122.53
2022-12-08T20:23:14.681Z,99131.94
2022-12-08T20:25:44.197Z,99141.56
2022-12-08T20:28:11.401Z,99145.84
2022-12-08T20:30:40.572Z,99147.56
2022-12-08T20:33:07.970Z,99144.03
2022-12-08T20:35:35.086Z,99147.44
2022-12-08T20:38:02.325Z,99147.44
2022-12-08T20:40:29.376Z,99157.91
2022-12-08T20:42:56.438Z,99149.13
2022-12-08T20:45:23.402Z,99151.69
2022-12-08T20:47:50.458Z,99146.47
2022-12-08T20:50:17.536Z,99159.53
2022-12-08T20:52:44.597Z,99161.16
2022-12-08T20:55:11.919Z,99160.34
2022-12-08T20:57:38.965Z,99168.25
2022-12-08T21:00:11.061Z,99163.91
2022-12-08T21:02:43.274Z,99168.25
2022-12-08T21:05:14.228Z,99163.91
2022-12-08T21:07:41.611Z,99163.69
2022-12-08T21:10:09.866Z,99167.22
2022-12-08T21:12:37.185Z,99162.03
2022-12-08T21:15:04.935Z,99157.63
2022-12-08T21:17:31.982Z,99154.97
2022-12-08T21:19:59.297Z,99151.50
2022-12-08T21:22:26.379Z,99152.28
2022-12-08T21:24:53.581Z,99148.03
2022-12-08T21:27:20.749Z,99158.59
2022-12-08T21:29:47.984Z,99160.28
2022-12-08T21:32:15.095Z,99161.03
2022-12-08T21:34:44.271Z,99155.84
2022-12-08T21:37:11.471Z,99154.97
2022-12-08T21:39:38.563Z,99164.69
2022-12-08T21:42:25.783Z,99153.09
2022-12-08T21:44:56.356Z,99155.81
2022-12-08T21:47:23.468Z,99160.31
2022-12-08T21:49:50.592Z,99153.97
2022-12-08T21:52:17.540Z,99158.38
2022-12-08T21:54:44.700Z,99151.47
2022-12-08T21:57:13.493Z,99150.56
2022-12-08T21:59:40.583Z,99158.34
2022-12-08T22:02:10.649Z,99154.81
2022-12-08T22:04:38.816Z,99156.63
2022-12-08T22:07:09.112Z,99171.22
2022-12-08T22:09:36.471Z,99166.00
2022-12-08T22:12:03.965Z,99168.66
2022-12-08T22:14:31.063Z,99172.13
2022-12-08T22:16:58.074Z,99178.25
2022-12-08T22:19:25.618Z,99178.25
2022-12-08T22:21:55.185Z,99180.97
2022-12-08T22:24:22.173Z,99172.16
2022-12-08T22:26:49.235Z,99175.56
2022-12-08T22:29:16.761Z,99180.72
2022-12-08T22:31:44.297Z,99177.16
2022-12-08T22:34:11.998Z,99183.25
2022-12-08T22:36:38.968Z,99178.19
2022-12-08T22:39:05.937Z,99175.28
2022-12-08T22:41:34.054Z,99174.19
2022-12-08T22:44:01.010Z,99185.81
2022-12-08T22:46:28.273Z,99185.09
2022-12-08T22:48:55.715Z,99175.47
2022-12-08T22:51:22.983Z,99166.69
2022-12-08T22:53:50.431Z,99168.34
2022-12-08T22:56:18.707Z,99155.16
2022-12-08T22:58:46.006Z,99159.50
2022-12-08T23:01:31.496Z,99159.44
2022-12-08T23:04:00.379Z,99162.03
2022-12-08T23:06:29.720Z,99161.09
2022-12-08T23:08:57.843Z,99161.94
2022-12-08T23:11:29.235Z,99170.81
2022-12-08T23:13:59.889Z,99156.84
2022-12-08T23:16:27.609Z,99149.78
2022-12-08T23:18:54.664Z,99141.94
2022-12-08T23:21:22.495Z,99146.19
2022-12-08T23:23:49.603Z,99148.84
2022-12-08T23:26:20.410Z,99152.41
2022-12-08T23:28:47.736Z,99138.03
2022-12-08T23:31:15.399Z,99127.22
2022-12-08T23:33:43.199Z,99131.78
2022-12-08T23:36:11.731Z,99143.22
2022-12-08T23:38:39.401Z,99140.72
2022-12-08T23:41:09.124Z,99140.81
2022-12-08T23:43:36.546Z,99137.41
2022-12-08T23:46:04.713Z,99121.38
2022-12-08T23:48:34.989Z,99117.47
2022-12-08T23:51:02.596Z,99120.94
2022-12-08T23:53:31.460Z,99118.41
2022-12-08T23:56:04.683Z,99118.72
2022-12-08T23:58:32.849Z,99117.72
